Time;durP1;ratioP1;P1;durP2;ratioP2;P2;SDS_P1;SDS_P2;PMS_P1;PMS_P2;Temp;Humidity;BMP_temperature;BMP_pressure;BME280_temperature;BME280_humidity;BME280_pressure;Samples;Min_cycle;Max_cycle;Signal;HPM_P1;HPM_P2
2023/05/26 00:00:34;;;;;;;7.50;5.43;;;22.10;45.00;;;;;;5050301;28;20231;-50
2023/05/26 00:03:02;;;;;;;8.37;6.03;;;22.00;45.00;;;;;;5052231;28;20470;-49
2023/05/26 00:05:28;;;;;;;8.03;7.23;;;22.00;45.00;;;;;;5039929;28;20468;-49
2023/05/26 00:07:54;;;;;;;7.60;6.57;;;22.00;45.20;;;;;;5032518;28;20447;-50
2023/05/26 00:10:20;;;;;;;8.33;6.50;;;21.90;45.50;;;;;;5037168;28;20186;-51
2023/05/26 00:12:45;;;;;;;6.60;6.00;;;21.90;45.70;;;;;;5050366;28;20560;-51
2023/05/26 00:15:11;;;;;;;5.97;5.37;;;21.90;45.80;;;;;;5048843;28;20584;-50
2023/05/26 00:17:37;;;;;;;7.23;6.53;;;21.80;45.60;;;;;;5037895;28;20200;-53
2023/05/26 00:20:04;;;;;;;8.30;6.20;;;21.80;45.60;;;;;;5041638;28;20193;-51
2023/05/26 00:22:30;;;;;;;6.97;6.27;;;21.80;46.00;;;;;;5051714;28;20195;-50
2023/05/26 00:24:55;;;;;;;7.53;5.80;;;21.70;46.60;;;;;;5046353;28;20446;-50
2023/05/26 00:27:21;;;;;;;6.20;5.40;;;21.60;46.80;;;;;;5044081;28;20201;-50
2023/05/26 00:29:48;;;;;;;5.90;5.30;;;21.60;46.60;;;;;;5044908;28;20561;-50
2023/05/26 00:32:13;;;;;;;7.07;5.97;;;21.50;46.40;;;;;;5042270;28;20252;-49
2023/05/26 00:34:39;;;;;;;7.63;6.30;;;21.50;46.40;;;;;;5036861;28;20451;-50
2023/05/26 00:37:04;;;;;;;6.93;6.33;;;21.40;46.30;;;;;;5051359;28;20204;-50
2023/05/26 00:39:30;;;;;;;8.63;6.60;;;21.40;46.20;;;;;;5049607;28;20279;-49
2023/05/26 00:41:57;;;;;;;7.60;6.90;;;21.40;46.60;;;;;;5045562;28;20295;-50
2023/05/26 00:44:23;;;;;;;7.20;6.57;;;21.40;47.10;;;;;;5048903;28;20883;-50
2023/05/26 00:46:49;;;;;;;8.80;7.10;;;21.40;47.40;;;;;;5037118;28;20526;-50
2023/05/26 00:49:14;;;;;;;6.50;5.53;;;21.30;47.60;;;;;;5037912;28;20201;-52
2023/05/26 00:51:43;;;;;;;7.70;6.23;;;21.30;47.90;;;;;;5031639;28;20309;-52
2023/05/26 00:54:09;;;;;;;9.13;5.70;;;21.30;48.00;;;;;;5049777;28;20232;-53
2023/05/26 00:56:35;;;;;;;11.03;6.10;;;21.30;47.80;;;;;;5048256;28;20443;-51
2023/05/26 00:59:03;;;;;;;6.63;6.03;;;21.30;47.60;;;;;;5040577;28;20442;-50
2023/05/26 01:01:29;;;;;;;8.10;6.33;;;21.20;47.80;;;;;;5050794;28;20526;-49
2023/05/26 01:03:56;;;;;;;9.33;6.00;;;21.20;48.00;;;;;;5050312;28;20441;-51
2023/05/26 01:06:22;;;;;;;7.30;6.50;;;21.10;48.00;;;;;;5050825;28;20503;-53
2023/05/26 01:08:48;;;;;;;7.77;6.33;;;21.10;48.20;;;;;;5049398;28;20451;-51
2023/05/26 01:11:21;;;;;;;8.30;6.40;;;21.10;48.30;;;;;;5050525;28;20860;-52
2023/05/26 01:13:53;;;;;;;7.43;6.70;;;21.10;48.20;;;;;;5046576;28;20474;-53
2023/05/26 01:16:22;;;;;;;10.43;6.77;;;21.00;48.20;;;;;;5045449;28;20875;-49
2023/05/26 01:18:58;;;;;;;9.70;6.67;;;21.00;48.40;;;;;;5046397;28;20439;-53
2023/05/26 01:21:27;;;;;;;8.00;6.70;;;20.90;48.40;;;;;;5051137;28;20521;-50
2023/05/26 01:24:33;;;;;;;7.27;6.50;;;20.90;48.60;;;;;;5041641;28;20459;-52
2023/05/26 01:27:08;;;;;;;8.00;7.07;;;20.80;48.70;;;;;;5050032;28;20443;-53
2023/05/26 01:29:37;;;;;;;7.60;6.80;;;20.70;48.60;;;;;;5044557;28;20477;-53
2023/05/26 01:32:13;;;;;;;7.83;6.07;;;20.60;48.50;;;;;;5042337;28;20479;-54
2023/05/26 01:34:39;;;;;;;6.97;6.30;;;20.50;49.00;;;;;;5042393;28;20445;-51
2023/05/26 01:37:05;;;;;;;8.47;6.43;;;20.50;48.80;;;;;;5035701;28;20444;-53
2023/05/26 01:39:31;;;;;;;7.80;6.23;;;20.40;48.70;;;;;;5045460;28;20192;-51
2023/05/26 01:42:22;;;;;;;8.43;6.50;;;20.40;48.80;;;;;;5053148;28;20192;-51
2023/05/26 01:44:54;;;;;;;9.40;6.80;;;20.30;49.10;;;;;;5055343;28;20189;-53
2023/05/26 01:47:22;;;;;;;10.83;6.40;;;20.10;49.30;;;;;;5041063;28;20818;-52
2023/05/26 01:49:49;;;;;;;7.10;5.97;;;20.10;49.60;;;;;;5048275;28;20470;-49
2023/05/26 01:52:18;;;;;;;7.10;5.77;;;20.10;49.70;;;;;;5050282;28;20844;-48
2023/05/26 01:54:59;;;;;;;7.20;6.50;;;20.20;49.70;;;;;;5054880;28;20433;-49
2023/05/26 01:57:26;;;;;;;8.90;6.03;;;20.30;49.40;;;;;;5052701;28;20440;-49
2023/05/26 01:59:52;;;;;;;8.57;5.93;;;20.30;49.30;;;;;;5044321;28;20439;-49
2023/05/26 02:02:18;;;;;;;8.67;6.60;;;20.40;49.50;;;;;;5042518;28;20446;-50
2023/05/26 02:04:43;;;;;;;8.03;6.20;;;20.40;49.60;;;;;;5038523;28;20338;-49
2023/05/26 02:07:09;;;;;;;9.40;6.13;;;20.40;49.80;;;;;;5049108;28;20882;-48
2023/05/26 02:09:35;;;;;;;8.20;6.33;;;20.40;49.60;;;;;;5048348;28;20707;-49
2023/05/26 02:12:01;;;;;;;7.57;6.90;;;20.40;49.50;;;;;;5050992;28;20228;-50
2023/05/26 02:14:27;;;;;;;8.13;6.80;;;20.40;49.50;;;;;;5051563;28;20843;-49
2023/05/26 02:16:52;;;;;;;7.57;6.37;;;20.40;49.80;;;;;;5041628;28;20454;-49
2023/05/26 02:19:18;;;;;;;7.30;6.53;;;20.30;49.70;;;;;;5048527;28;20773;-49
2023/05/26 02:21:44;;;;;;;9.90;7.60;;;20.30;49.70;;;;;;5048221;28;20636;-50
2023/05/26 02:24:09;;;;;;;7.37;5.90;;;20.30;49.90;;;;;;5049417;28;20200;-51
2023/05/26 02:26:35;;;;;;;7.23;6.53;;;20.20;49.90;;;;;;5038830;28;20190;-48
2023/05/26 02:29:01;;;;;;;7.67;6.90;;;20.20;50.30;;;;;;5047503;28;20624;-49
2023/05/26 02:31:27;;;;;;;7.97;6.73;;;20.10;50.10;;;;;;5050755;28;20201;-50
2023/05/26 02:33:53;;;;;;;7.83;7.03;;;20.10;50.20;;;;;;5051919;28;20461;-53
2023/05/26 02:36:18;;;;;;;7.20;6.50;;;20.00;50.30;;;;;;5037510;28;20235;-49
2023/05/26 02:38:44;;;;;;;9.47;6.90;;;20.00;50.50;;;;;;5041041;28;20233;-52
2023/05/26 02:41:09;;;;;;;9.40;6.90;;;20.10;50.50;;;;;;5050119;28;20189;-49
2023/05/26 02:43:37;;;;;;;11.03;7.43;;;20.10;50.20;;;;;;5048417;28;20256;-53
2023/05/26 02:46:03;;;;;;;8.50;7.70;;;20.10;50.10;;;;;;5050361;28;20239;-50
2023/05/26 02:48:29;;;;;;;8.97;6.63;;;20.10;50.00;;;;;;5051938;28;20443;-50
2023/05/26 02:50:55;;;;;;;10.00;7.47;;;20.10;49.80;;;;;;5042697;28;20298;-51
2023/05/26 02:53:21;;;;;;;7.47;6.70;;;20.10;49.80;;;;;;5040826;28;20236;-53
2023/05/26 02:55:47;;;;;;;8.37;7.40;;;20.00;49.80;;;;;;5036321;28;20451;-53
2023/05/26 02:58:13;;;;;;;7.50;6.80;;;20.00;50.00;;;;;;5050617;28;21210;-49
2023/05/26 03:00:38;;;;;;;7.97;7.17;;;19.90;50.10;;;;;;5050166;28;20204;-50
2023/05/26 03:03:04;;;;;;;9.50;6.90;;;19.90;50.30;;;;;;5050674;28;20680;-49
2023/05/26 03:05:29;;;;;;;10.37;7.10;;;19.80;50.20;;;;;;5049511;28;20235;-50
2023/05/26 03:07:55;;;;;;;8.00;7.20;;;19.80;50.30;;;;;;5044351;28;20235;-50
2023/05/26 03:10:21;;;;;;;7.90;7.10;;;19.80;50.40;;;;;;5048354;28;20189;-49
2023/05/26 03:12:46;;;;;;;7.43;6.07;;;19.80;50.30;;;;;;5045101;28;20232;-53
2023/05/26 03:15:12;;;;;;;8.10;7.30;;;19.80;50.60;;;;;;5050633;28;20192;-51
2023/05/26 03:17:38;;;;;;;9.17;5.80;;;19.80;50.30;;;;;;5053203;28;20231;-48
2023/05/26 03:20:04;;;;;;;7.40;6.30;;;19.80;50.40;;;;;;5048951;28;20648;-50
2023/05/26 03:22:29;;;;;;;7.70;6.90;;;19.70;50.30;;;;;;5050675;28;20195;-52
2023/05/26 03:24:55;;;;;;;7.23;6.30;;;19.70;50.40;;;;;;5046366;28;20431;-52
2023/05/26 03:27:23;;;;;;;9.90;6.73;;;19.80;50.80;;;;;;5051543;28;20196;-49
2023/05/26 03:29:49;;;;;;;8.33;6.63;;;19.80;50.20;;;;;;5051507;28;20196;-50
2023/05/26 03:32:15;;;;;;;13.20;7.87;;;19.90;50.00;;;;;;5048929;28;20561;-51
2023/05/26 03:34:41;;;;;;;11.80;8.37;;;19.90;49.60;;;;;;5047499;28;20455;-50
2023/05/26 03:37:07;;;;;;;9.73;7.27;;;19.90;49.50;;;;;;5051047;28;20446;-53
2023/05/26 03:39:33;;;;;;;8.63;7.73;;;19.90;49.60;;;;;;5046398;28;20223;-49
2023/05/26 03:41:59;;;;;;;10.20;6.87;;;19.80;49.70;;;;;;5033048;28;20795;-49
2023/05/26 03:44:26;;;;;;;8.53;7.10;;;19.80;49.80;;;;;;5049755;28;20452;-53
2023/05/26 03:46:52;;;;;;;12.37;8.93;;;19.80;49.80;;;;;;5047629;28;20419;-49
2023/05/26 03:49:17;;;;;;;8.47;6.63;;;19.80;49.70;;;;;;5041390;28;20446;-53
2023/05/26 03:51:43;;;;;;;9.17;6.50;;;19.80;49.60;;;;;;5048605;28;20271;-50
2023/05/26 03:54:08;;;;;;;9.07;7.07;;;19.80;49.50;;;;;;5048128;28;20185;-52
2023/05/26 03:56:34;;;;;;;11.03;7.20;;;19.80;49.80;;;;;;5049412;28;20228;-50
2023/05/26 03:59:00;;;;;;;10.73;7.00;;;19.70;50.10;;;;;;5046217;28;20276;-50
2023/05/26 04:01:25;;;;;;;9.23;5.90;;;19.80;50.70;;;;;;5041186;28;20205;-50
2023/05/26 04:03:51;;;;;;;7.80;6.97;;;19.90;50.80;;;;;;5045332;28;20606;-49
2023/05/26 04:06:17;;;;;;;8.27;6.70;;;20.00;50.80;;;;;;5045946;28;20232;-51
2023/05/26 04:08:43;;;;;;;7.83;7.13;;;20.10;50.20;;;;;;5043829;28;20205;-50
2023/05/26 04:11:08;;;;;;;7.13;6.00;;;20.20;50.00;;;;;;5044657;28;20204;-50
2023/05/26 04:13:38;;;;;;;9.27;6.07;;;20.10;50.10;;;;;;5043092;28;20224;-49
2023/05/26 04:16:04;;;;;;;8.07;6.40;;;20.20;51.10;;;;;;5051026;28;20188;-50
2023/05/26 04:18:30;;;;;;;6.70;6.10;;;20.30;50.30;;;;;;5045202;28;20443;-49
2023/05/26 04:20:56;;;;;;;7.20;6.50;;;20.40;49.80;;;;;;5050091;28;20457;-49
2023/05/26 04:23:21;;;;;;;8.67;6.93;;;20.60;49.40;;;;;;5043266;28;20449;-50
2023/05/26 04:25:48;;;;;;;7.30;6.20;;;20.60;49.10;;;;;;5050717;28;20189;-51
2023/05/26 04:28:14;;;;;;;6.40;5.80;;;20.70;48.90;;;;;;5048037;28;20635;-50
2023/05/26 04:30:40;;;;;;;8.23;6.37;;;20.80;48.80;;;;;;5046209;28;20534;-49
2023/05/26 04:33:07;;;;;;;7.53;6.67;;;20.80;48.70;;;;;;5044334;28;20228;-50
2023/05/26 04:35:33;;;;;;;7.50;6.27;;;20.80;48.50;;;;;;5050314;28;20447;-50
2023/05/26 04:37:59;;;;;;;9.23;6.80;;;20.90;48.60;;;;;;5045297;28;20462;-51
2023/05/26 04:40:25;;;;;;;8.97;7.03;;;20.90;48.30;;;;;;5048471;28;20439;-50
2023/05/26 04:42:50;;;;;;;6.40;5.80;;;21.00;48.90;;;;;;5039281;28;20636;-49
2023/05/26 04:45:17;;;;;;;7.97;6.90;;;21.10;48.40;;;;;;5045518;28;20443;-49
2023/05/26 04:47:42;;;;;;;8.20;6.80;;;21.10;48.10;;;;;;5044214;28;20235;-50
2023/05/26 04:50:12;;;;;;;9.67;6.30;;;21.10;48.20;;;;;;5045415;28;20483;-51
2023/05/26 04:52:39;;;;;;;6.73;6.00;;;21.20;48.00;;;;;;5036431;28;20311;-49
2023/05/26 04:55:06;;;;;;;10.33;6.23;;;21.30;47.90;;;;;;5042198;28;20455;-50
2023/05/26 04:57:31;;;;;;;7.93;7.13;;;21.30;47.80;;;;;;5042234;28;20492;-51
2023/05/26 04:59:57;;;;;;;8.57;6.50;;;21.30;47.70;;;;;;5045358;28;20431;-54
2023/05/26 05:02:23;;;;;;;8.30;7.00;;;21.40;47.60;;;;;;5044755;28;20196;-53
2023/05/26 05:04:48;;;;;;;7.67;6.70;;;21.40;47.50;;;;;;5044095;28;20239;-49
2023/05/26 05:07:14;;;;;;;8.77;7.57;;;21.40;47.30;;;;;;5045086;28;20232;-50
2023/05/26 05:09:40;;;;;;;9.83;8.27;;;21.40;47.40;;;;;;5044178;28;20196;-50
2023/05/26 05:12:06;;;;;;;9.17;8.00;;;21.50;47.20;;;;;;5041414;28;20483;-49
2023/05/26 05:14:32;;;;;;;8.80;7.90;;;21.40;47.50;;;;;;5044519;28;20202;-53
2023/05/26 05:16:58;;;;;;;8.87;7.97;;;21.30;47.80;;;;;;5040838;28;20595;-49
2023/05/26 05:19:23;;;;;;;10.37;8.27;;;21.20;48.00;;;;;;5041029;28;20446;-48
2023/05/26 05:21:49;;;;;;;9.07;8.20;;;21.10;48.20;;;;;;5042725;28;20202;-48
2023/05/26 05:24:16;;;;;;;11.03;8.97;;;20.90;48.50;;;;;;5029019;28;20225;-50
2023/05/26 05:26:42;;;;;;;9.63;8.53;;;20.80;48.80;;;;;;5031567;28;20432;-48
2023/05/26 05:29:08;;;;;;;10.50;8.80;;;20.80;49.10;;;;;;5031712;28;20189;-47
2023/05/26 05:31:33;;;;;;;12.30;8.50;;;20.50;49.50;;;;;;5031022;28;20201;-48
2023/05/26 05:33:59;;;;;;;9.30;8.40;;;20.40;50.10;;;;;;5031458;28;20542;-48
2023/05/26 05:36:25;;;;;;;10.27;8.10;;;20.40;50.10;;;;;;5031503;28;20189;-47
2023/05/26 05:38:51;;;;;;;8.57;7.70;;;20.40;50.10;;;;;;5031530;28;20557;-47
2023/05/26 05:41:17;;;;;;;10.03;8.23;;;20.50;50.10;;;;;;5030865;28;20420;-47
2023/05/26 05:43:42;;;;;;;10.80;9.03;;;20.60;50.20;;;;;;5031327;28;20194;-49
2023/05/26 05:46:08;;;;;;;11.27;8.40;;;20.60;49.90;;;;;;5031308;28;20561;-47
2023/05/26 05:48:34;;;;;;;11.43;9.00;;;20.70;49.90;;;;;;5031217;28;20277;-51
2023/05/26 05:51:00;;;;;;;11.67;7.83;;;20.70;49.70;;;;;;5029416;28;20428;-48
2023/05/26 05:53:26;;;;;;;8.97;8.10;;;20.80;49.80;;;;;;5042187;28;20220;-48
2023/05/26 05:55:51;;;;;;;11.43;8.60;;;20.80;50.20;;;;;;5035105;28;20196;-48
2023/05/26 05:58:17;;;;;;;10.30;9.30;;;20.90;49.60;;;;;;5031232;28;20202;-50
2023/05/26 06:00:42;;;;;;;8.83;7.93;;;21.00;49.60;;;;;;5031070;28;20587;-49
2023/05/26 06:03:08;;;;;;;9.87;8.87;;;21.10;49.70;;;;;;5031323;28;20680;-48
2023/05/26 06:05:34;;;;;;;11.20;8.90;;;21.20;49.80;;;;;;5033781;28;20618;-48
2023/05/26 06:08:00;;;;;;;10.43;8.20;;;21.30;49.30;;;;;;5051184;28;20200;-48
2023/05/26 06:10:26;;;;;;;9.47;7.67;;;21.40;48.70;;;;;;5034320;28;20762;-49
2023/05/26 06:12:51;;;;;;;9.87;7.60;;;21.40;48.00;;;;;;5031093;28;20641;-48
2023/05/26 06:15:18;;;;;;;10.37;8.80;;;21.40;48.00;;;;;;5029982;28;20200;-50
2023/05/26 06:17:44;;;;;;;8.63;6.80;;;21.50;48.40;;;;;;5030583;28;20198;-48
2023/05/26 06:20:10;;;;;;;9.03;7.10;;;21.60;48.70;;;;;;5032354;28;20524;-47
2023/05/26 06:22:36;;;;;;;10.40;7.10;;;21.70;48.90;;;;;;5035050;28;20224;-48
2023/05/26 06:25:03;;;;;;;9.50;7.20;;;21.70;48.50;;;;;;5034708;28;20936;-48
2023/05/26 06:27:28;;;;;;;9.13;7.50;;;21.80;48.00;;;;;;5034497;28;20464;-48
2023/05/26 06:29:54;;;;;;;9.60;7.90;;;21.90;47.40;;;;;;5034122;28;20460;-48
2023/05/26 06:32:20;;;;;;;10.47;7.83;;;22.00;46.90;;;;;;5034532;28;20225;-49
2023/05/26 06:34:46;;;;;;;8.87;7.27;;;22.10;47.10;;;;;;5034604;28;20194;-48
2023/05/26 06:37:12;;;;;;;12.37;7.90;;;22.10;46.80;;;;;;5034573;28;20193;-48
2023/05/26 06:39:37;;;;;;;10.67;6.80;;;22.20;46.80;;;;;;5034062;28;20450;-48
2023/05/26 06:42:03;;;;;;;8.77;7.90;;;22.30;46.50;;;;;;5032820;28;20548;-47
2023/05/26 06:44:29;;;;;;;9.23;7.33;;;22.40;46.90;;;;;;5034201;28;20236;-47
2023/05/26 06:46:55;;;;;;;7.57;6.87;;;22.50;46.60;;;;;;5034261;28;20198;-48
2023/05/26 06:49:20;;;;;;;10.83;8.40;;;22.60;46.50;;;;;;5034408;28;20924;-48
2023/05/26 06:51:46;;;;;;;10.40;7.00;;;22.70;46.10;;;;;;5033758;28;20197;-48
2023/05/26 06:54:12;;;;;;;12.07;7.53;;;22.80;45.40;;;;;;5049038;28;20193;-48
2023/05/26 06:56:37;;;;;;;8.83;7.50;;;23.00;45.30;;;;;;5034206;28;20228;-49
2023/05/26 06:59:03;;;;;;;10.47;7.57;;;23.10;44.90;;;;;;5033995;28;20606;-48
2023/05/26 07:01:28;;;;;;;9.90;7.73;;;23.20;45.20;;;;;;5033589;28;20225;-48
2023/05/26 07:03:54;;;;;;;10.07;7.60;;;23.20;45.00;;;;;;5033945;28;20197;-48
2023/05/26 07:06:20;;;;;;;8.37;7.13;;;23.30;45.20;;;;;;5043280;28;20232;-49
2023/05/26 07:08:45;;;;;;;9.80;7.10;;;23.40;45.30;;;;;;5049608;28;20661;-49
2023/05/26 07:11:11;;;;;;;13.07;7.87;;;23.50;44.60;;;;;;5033643;28;20242;-50
2023/05/26 07:13:36;;;;;;;12.40;7.57;;;23.70;44.60;;;;;;5033618;28;20750;-49
2023/05/26 07:16:02;;;;;;;10.40;7.60;;;23.70;43.80;;;;;;5033970;28;20189;-48
2023/05/26 07:18:28;;;;;;;15.57;8.20;;;23.70;44.10;;;;;;5033562;28;20336;-51
2023/05/26 07:20:55;;;;;;;8.67;7.77;;;23.80;44.10;;;;;;5033215;28;20564;-52
2023/05/26 07:23:20;;;;;;;9.50;8.07;;;23.80;44.80;;;;;;5033736;28;20197;-52
2023/05/26 07:25:46;;;;;;;9.57;8.03;;;24.00;43.70;;;;;;5033770;28;20431;-49
2023/05/26 07:28:12;;;;;;;9.47;7.43;;;24.10;43.40;;;;;;5033942;28;20196;-52
2023/05/26 07:30:37;;;;;;;11.07;7.73;;;24.10;43.10;;;;;;5033037;28;20196;-50
2023/05/26 07:33:03;;;;;;;8.73;7.83;;;24.20;43.30;;;;;;5032910;28;20699;-51
2023/05/26 07:35:28;;;;;;;9.10;6.80;;;24.30;42.60;;;;;;5031941;28;20268;-52
2023/05/26 07:37:55;;;;;;;10.03;7.20;;;24.50;43.50;;;;;;5033340;28;20201;-52
2023/05/26 07:40:21;;;;;;;8.10;7.23;;;24.70;42.90;;;;;;5031846;28;20224;-50
2023/05/26 07:42:46;;;;;;;12.23;7.80;;;24.80;43.30;;;;;;5033124;28;20463;-52
2023/05/26 07:45:12;;;;;;;11.53;7.80;;;24.90;42.70;;;;;;5033302;28;20656;-50
2023/05/26 07:47:38;;;;;;;9.97;7.40;;;25.00;41.80;;;;;;5032943;28;20198;-48
2023/05/26 07:50:04;;;;;;;12.97;7.47;;;25.20;42.90;;;;;;5032966;28;20626;-53
2023/05/26 07:52:30;;;;;;;10.13;7.30;;;25.30;42.20;;;;;;5036244;28;20232;-53
2023/05/26 07:54:56;;;;;;;12.03;7.80;;;25.50;41.30;;;;;;5044958;28;20987;-53
2023/05/26 07:57:21;;;;;;;10.60;8.33;;;25.70;40.60;;;;;;5032843;28;20667;-50
2023/05/26 07:59:47;;;;;;;9.33;8.27;;;25.50;40.90;;;;;;5032762;28;20189;-49
2023/05/26 08:02:12;;;;;;;8.13;6.87;;;25.60;40.90;;;;;;5031457;28;20615;-49
2023/05/26 08:04:38;;;;;;;10.23;7.43;;;25.80;40.80;;;;;;5032661;28;20193;-53
2023/05/26 08:07:05;;;;;;;9.27;6.93;;;25.80;40.90;;;;;;5048043;28;20192;-49
2023/05/26 08:09:30;;;;;;;12.10;7.03;;;26.00;40.60;;;;;;5043699;28;20487;-49
2023/05/26 08:11:56;;;;;;;11.87;7.87;;;26.10;40.50;;;;;;5032659;28;20428;-49
2023/05/26 08:14:23;;;;;;;9.63;7.80;;;26.10;40.80;;;;;;5032892;28;20197;-51
2023/05/26 08:16:49;;;;;;;10.43;7.30;;;26.20;39.70;;;;;;5032874;28;20617;-52
2023/05/26 08:19:14;;;;;;;8.57;7.67;;;26.10;39.80;;;;;;5032823;28;20512;-52
2023/05/26 08:21:40;;;;;;;8.43;6.87;;;26.20;40.40;;;;;;5032095;28;20671;-51
2023/05/26 08:24:05;;;;;;;8.13;7.33;;;26.40;40.50;;;;;;5031279;28;20208;-50
2023/05/26 08:26:31;;;;;;;12.00;7.20;;;26.50;39.70;;;;;;5032536;28;20239;-48
2023/05/26 08:28:57;;;;;;;9.70;7.03;;;26.50;39.60;;;;;;5031074;28;20232;-49
2023/05/26 08:31:22;;;;;;;9.07;7.10;;;26.70;41.10;;;;;;5032059;28;20236;-49
2023/05/26 08:33:48;;;;;;;8.90;7.10;;;26.90;41.00;;;;;;5032411;28;20358;-48
2023/05/26 08:36:13;;;;;;;10.10;7.80;;;27.00;40.10;;;;;;5032350;28;20288;-50
2023/05/26 08:38:39;;;;;;;8.83;7.57;;;27.20;39.20;;;;;;5032429;28;20196;-51
2023/05/26 08:41:05;;;;;;;9.40;6.50;;;27.30;38.70;;;;;;5031784;28;20322;-52
2023/05/26 08:43:46;;;;;;;11.70;7.47;;;27.50;38.60;;;;;;5032066;28;20194;-49
2023/05/26 08:46:12;;;;;;;9.20;6.83;;;27.50;37.90;;;;;;5032160;28;20511;-48
2023/05/26 08:48:39;;;;;;;8.20;6.70;;;27.60;38.60;;;;;;5032412;28;21054;-52
2023/05/26 08:51:08;;;;;;;10.00;7.90;;;27.70;38.30;;;;;;5031603;28;20542;-49
2023/05/26 08:53:34;;;;;;;7.43;6.50;;;27.80;38.10;;;;;;5044473;28;20561;-54
2023/05/26 08:56:00;;;;;;;8.67;7.63;;;27.90;37.70;;;;;;5032098;28;20527;-52
2023/05/26 08:58:27;;;;;;;12.40;7.77;;;28.00;37.60;;;;;;5032083;28;20201;-53
2023/05/26 09:00:54;;;;;;;7.73;6.30;;;28.00;37.20;;;;;;5031462;28;20420;-54
2023/05/26 09:03:20;;;;;;;8.03;7.23;;;28.20;36.70;;;;;;5031990;28;20435;-53
2023/05/26 09:05:46;;;;;;;8.63;7.10;;;28.30;35.70;;;;;;5036563;28;20461;-54
2023/05/26 09:08:12;;;;;;;7.03;6.37;;;28.40;35.90;;;;;;5051540;28;20407;-52
2023/05/26 09:10:38;;;;;;;8.97;7.80;;;28.50;35.80;;;;;;5033066;28;20196;-51
2023/05/26 09:13:08;;;;;;;8.10;7.30;;;28.60;36.60;;;;;;5031618;28;20484;-53
2023/05/26 09:15:36;;;;;;;10.50;8.10;;;28.70;36.80;;;;;;5031541;28;20197;-54
2023/05/26 09:18:12;;;;;;;10.23;7.50;;;28.80;36.40;;;;;;5031914;28;20776;-52
2023/05/26 09:20:43;;;;;;;9.17;6.60;;;28.90;35.80;;;;;;5037348;28;20449;-53
2023/05/26 09:23:10;;;;;;;7.37;5.50;;;28.90;36.50;;;;;;5051506;28;20514;-52
2023/05/26 09:25:37;;;;;;;10.43;6.93;;;29.00;37.50;;;;;;5051519;28;20918;-50
2023/05/26 09:28:07;;;;;;;9.03;7.60;;;29.00;35.90;;;;;;5051574;28;20426;-53
2023/05/26 09:30:40;;;;;;;10.17;7.30;;;29.20;36.80;;;;;;5051088;28;20453;-49
2023/05/26 09:33:08;;;;;;;7.33;6.07;;;29.30;36.60;;;;;;5051333;28;20974;-53
2023/05/26 09:35:38;;;;;;;7.60;6.50;;;29.50;34.70;;;;;;5051649;28;20423;-49
2023/05/26 09:38:08;;;;;;;7.33;6.57;;;29.50;34.60;;;;;;5051559;28;20438;-48
2023/05/26 09:40:39;;;;;;;7.37;6.30;;;29.50;33.60;;;;;;5033230;28;20443;-49
2023/05/26 09:43:05;;;;;;;9.60;6.60;;;29.50;33.80;;;;;;5051391;28;20941;-49
2023/05/26 09:45:35;;;;;;;8.87;5.80;;;29.60;34.00;;;;;;5051213;28;20419;-50
2023/05/26 09:48:05;;;;;;;9.73;6.43;;;29.90;35.60;;;;;;5049490;28;20254;-50
2023/05/26 09:50:36;;;;;;;10.50;7.03;;;29.90;34.00;;;;;;5050925;28;20453;-48
2023/05/26 09:53:03;;;;;;;7.93;7.10;;;29.90;34.40;;;;;;5043576;28;20487;-52
2023/05/26 09:55:30;;;;;;;7.93;7.20;;;30.10;34.30;;;;;;5033496;28;20793;-49
2023/05/26 09:58:04;;;;;;;10.70;6.47;;;30.20;34.40;;;;;;5035379;28;20423;-50
2023/05/26 10:00:32;;;;;;;7.83;6.80;;;30.50;35.10;;;;;;5034737;28;20428;-50
2023/05/26 10:02:58;;;;;;;6.80;6.10;;;30.60;34.10;;;;;;5035179;28;20435;-50
2023/05/26 10:05:24;;;;;;;6.70;6.00;;;30.60;33.70;;;;;;5036760;28;20472;-49
2023/05/26 10:07:52;;;;;;;9.10;7.20;;;30.60;35.20;;;;;;5055014;28;20454;-50
2023/05/26 10:10:18;;;;;;;8.30;6.47;;;30.60;34.40;;;;;;5039662;28;20427;-50
2023/05/26 10:12:44;;;;;;;7.53;6.00;;;30.80;33.90;;;;;;5034951;28;20522;-52
2023/05/26 10:15:10;;;;;;;9.27;6.73;;;30.90;34.90;;;;;;5033320;28;20530;-49
2023/05/26 10:17:38;;;;;;;7.17;6.50;;;31.00;34.80;;;;;;5034938;28;20522;-51
2023/05/26 10:20:05;;;;;;;8.83;6.77;;;31.20;34.30;;;;;;5034521;28;20432;-49
2023/05/26 10:22:48;;;;;;;10.23;7.00;;;31.30;35.40;;;;;;5034520;28;20573;-50
2023/05/26 10:25:42;;;;;;;8.67;6.23;;;31.50;34.70;;;;;;5034802;28;20511;-50
2023/05/26 10:28:17;;;;;;;6.87;6.10;;;31.70;34.20;;;;;;5023658;28;20444;-50
2023/05/26 10:30:43;;;;;;;10.40;7.70;;;31.80;32.90;;;;;;5034235;28;20478;-52
2023/05/26 10:33:16;;;;;;;8.73;7.23;;;32.00;32.70;;;;;;5034342;28;20491;-51
2023/05/26 10:35:57;;;;;;;14.53;8.17;;;32.10;32.20;;;;;;5034679;28;20900;-51
2023/05/26 10:38:29;;;;;;;10.80;6.90;;;32.00;32.30;;;;;;5034696;28;20498;-52
2023/05/26 10:40:55;;;;;;;9.37;7.33;;;32.00;32.70;;;;;;5032410;28;20432;-50
2023/05/26 10:43:25;;;;;;;8.63;6.67;;;31.80;32.20;;;;;;5034462;28;20440;-51
2023/05/26 10:45:59;;;;;;;7.43;6.33;;;31.90;32.10;;;;;;5034357;28;20420;-52
2023/05/26 10:48:32;;;;;;;9.37;6.60;;;31.90;32.40;;;;;;5034231;28;20486;-54
2023/05/26 10:51:07;;;;;;;9.20;6.17;;;31.80;32.50;;;;;;5033783;28;20463;-53
2023/05/26 10:53:44;;;;;;;9.27;6.40;;;31.80;31.70;;;;;;5045919;28;21015;-52
2023/05/26 10:56:12;;;;;;;8.73;6.70;;;31.80;31.90;;;;;;5035352;28;20419;-53
2023/05/26 10:58:46;;;;;;;7.20;5.90;;;31.80;33.20;;;;;;5034130;28;20490;-52
2023/05/26 11:01:16;;;;;;;7.57;6.77;;;32.00;33.10;;;;;;5040383;28;20442;-54
2023/05/26 11:03:44;;;;;;;7.40;6.70;;;32.20;32.00;;;;;;5053859;28;20439;-53
2023/05/26 11:06:12;;;;;;;8.80;6.10;;;32.30;32.50;;;;;;5052427;28;20455;-53
2023/05/26 11:08:39;;;;;;;6.77;6.17;;;32.40;33.00;;;;;;5050965;28;20419;-50
2023/05/26 11:11:09;;;;;;;8.40;6.30;;;32.60;32.30;;;;;;5033734;28;20424;-51
2023/05/26 11:13:47;;;;;;;11.37;6.40;;;32.70;31.30;;;;;;5033989;28;20483;-53
2023/05/26 11:16:19;;;;;;;6.90;6.30;;;32.70;32.00;;;;;;5033769;28;20757;-53
2023/05/26 11:18:51;;;;;;;7.40;6.50;;;32.70;31.70;;;;;;5033656;28;20452;-53
2023/05/26 11:21:18;;;;;;;8.30;6.27;;;32.80;31.10;;;;;;5033226;28;20931;-54
2023/05/26 11:23:45;;;;;;;7.03;5.70;;;32.70;31.20;;;;;;5033600;28;20435;-50
2023/05/26 11:26:15;;;;;;;8.50;6.00;;;32.70;31.70;;;;;;5033580;28;20924;-52
2023/05/26 11:28:45;;;;;;;11.10;5.73;;;32.80;31.60;;;;;;5033574;28;20562;-54
2023/05/26 11:31:18;;;;;;;7.93;6.13;;;32.70;31.40;;;;;;5033135;28;20482;-54
2023/05/26 11:33:45;;;;;;;9.10;6.00;;;32.90;31.40;;;;;;5044205;28;20482;-52
2023/05/26 11:36:12;;;;;;;6.97;6.27;;;33.00;31.30;;;;;;5038891;28;20423;-54
2023/05/26 11:38:40;;;;;;;6.47;5.80;;;33.00;31.60;;;;;;5033460;28;20520;-54
2023/05/26 11:41:07;;;;;;;11.53;6.73;;;33.10;32.50;;;;;;5032997;28;20424;-54
2023/05/26 11:43:33;;;;;;;8.60;6.40;;;33.20;31.50;;;;;;5033316;28;20431;-52
2023/05/26 11:46:09;;;;;;;10.47;6.30;;;33.30;31.00;;;;;;5033181;28;20470;-52
2023/05/26 11:48:39;;;;;;;6.30;5.60;;;33.40;30.30;;;;;;5033192;28;20436;-53
2023/05/26 11:51:09;;;;;;;7.60;6.33;;;33.30;31.10;;;;;;5032649;28;20926;-53
2023/05/26 11:53:35;;;;;;;10.87;6.37;;;33.20;31.00;;;;;;5045011;28;20581;-53
2023/05/26 11:56:05;;;;;;;6.80;6.07;;;33.10;31.40;;;;;;5035426;28;20434;-52
2023/05/26 11:58:36;;;;;;;6.90;5.80;;;33.20;31.40;;;;;;5032961;28;20424;-53
2023/05/26 12:01:03;;;;;;;7.57;6.17;;;33.30;31.10;;;;;;5030992;28;20428;-53
2023/05/26 12:03:30;;;;;;;8.87;5.70;;;33.30;30.60;;;;;;5033093;28;20819;-52
2023/05/26 12:06:18;;;;;;;6.13;5.40;;;33.30;31.30;;;;;;5038647;28;20462;-53
2023/05/26 12:08:51;;;;;;;7.87;5.40;;;33.50;30.70;;;;;;5050443;28;20785;-51
2023/05/26 12:11:21;;;;;;;6.47;5.70;;;33.40;30.50;;;;;;5032528;28;20428;-54
2023/05/26 12:13:49;;;;;;;6.57;5.83;;;33.60;30.40;;;;;;5032526;28;20492;-51
2023/05/26 12:16:23;;;;;;;7.57;5.60;;;33.60;31.20;;;;;;5032705;28;20431;-51
2023/05/26 12:18:53;;;;;;;6.90;5.70;;;33.70;31.30;;;;;;5032472;28;20781;-51
2023/05/26 12:21:19;;;;;;;5.77;5.27;;;33.70;29.70;;;;;;5032196;28;20424;-52
2023/05/26 12:23:46;;;;;;;6.53;5.87;;;33.60;30.40;;;;;;5032486;28;20444;-52
2023/05/26 12:26:22;;;;;;;6.10;5.50;;;33.60;30.60;;;;;;5030976;28;20905;-52
2023/05/26 12:29:06;;;;;;;7.73;6.23;;;33.40;30.20;;;;;;5039541;28;20435;-53
2023/05/26 12:31:43;;;;;;;7.90;5.70;;;33.60;30.40;;;;;;5052093;28;20454;-52
2023/05/26 12:34:11;;;;;;;6.00;5.37;;;33.60;30.80;;;;;;5052099;28;20482;-54
2023/05/26 12:36:37;;;;;;;6.50;5.40;;;33.60;30.70;;;;;;5052156;28;20416;-54
2023/05/26 12:39:03;;;;;;;6.87;5.93;;;33.40;30.80;;;;;;5051760;28;20990;-53
2023/05/26 12:41:29;;;;;;;6.50;5.90;;;33.00;30.00;;;;;;5052076;28;20246;-53
2023/05/26 12:43:54;;;;;;;6.97;5.60;;;32.90;30.70;;;;;;5052202;28;20431;-54
2023/05/26 12:46:20;;;;;;;6.13;5.40;;;33.00;31.90;;;;;;5052219;28;20605;-54